Time;durP1;ratioP1;P1;durP2;ratioP2;P2;SDS_P1;SDS_P2;PMS_P1;PMS_P2;Temp;Humidity;BMP_temperature;BMP_pressure;BME280_temperature;BME280_humidity;BME280_pressure;Samples;Min_cycle;Max_cycle;Signal;HPM_P1;HPM_P2
2021/09/12 00:00:35;;;;;;;18.48;11.95;;;16.40;99.90;;;;;;5032457;28;20075;-85
2021/09/12 00:03:01;;;;;;;27.88;14.80;;;16.20;99.90;;;;;;5032431;28;20108;-85
2021/09/12 00:05:27;;;;;;;24.05;12.68;;;16.20;99.90;;;;;;5031915;28;20029;-85
2021/09/12 00:07:52;;;;;;;17.95;10.85;;;16.10;99.90;;;;;;5032887;28;20021;-85
2021/09/12 00:10:18;;;;;;;30.70;13.07;;;16.10;99.90;;;;;;5032263;28;20022;-85
2021/09/12 00:12:43;;;;;;;27.10;13.15;;;16.00;99.90;;;;;;5033515;28;20026;-84
2021/09/12 00:15:11;;;;;;;29.20;12.75;;;15.90;99.90;;;;;;5033117;28;20040;-84
2021/09/12 00:17:37;;;;;;;24.27;12.38;;;15.90;99.90;;;;;;5031779;28;20521;-85
2021/09/12 00:20:05;;;;;;;21.40;12.30;;;15.80;99.90;;;;;;5033345;28;20394;-85
2021/09/12 00:22:31;;;;;;;25.65;12.02;;;15.70;99.90;;;;;;5031930;28;20031;-85
2021/09/12 00:24:56;;;;;;;29.55;13.27;;;15.70;99.90;;;;;;5032658;28;20033;-84
2021/09/12 00:27:22;;;;;;;27.15;14.95;;;15.70;99.90;;;;;;5033119;28;20079;-84
2021/09/12 00:29:47;;;;;;;34.08;14.77;;;15.80;99.90;;;;;;5031942;28;20041;-85
2021/09/12 00:32:13;;;;;;;24.75;14.15;;;15.70;99.90;;;;;;5032985;28;20021;-85
2021/09/12 00:34:39;;;;;;;37.53;16.08;;;15.70;99.90;;;;;;5031232;28;20064;-84
2021/09/12 00:37:04;;;;;;;28.17;15.30;;;15.90;99.90;;;;;;5032570;28;20110;-84
2021/09/12 00:39:30;;;;;;;33.58;16.20;;;15.90;99.90;;;;;;5031639;28;20030;-85
2021/09/12 00:41:56;;;;;;;37.47;16.65;;;15.80;99.90;;;;;;5031690;28;20124;-85
2021/09/12 00:44:25;;;;;;;37.03;15.68;;;15.90;99.90;;;;;;5032631;28;20076;-85
2021/09/12 00:46:54;;;;;;;32.50;17.27;;;15.90;99.90;;;;;;5031134;28;20493;-85
2021/09/12 00:49:20;;;;;;;33.17;16.88;;;15.90;99.90;;;;;;5031521;28;20474;-84
2021/09/12 00:51:46;;;;;;;38.05;17.58;;;16.00;99.90;;;;;;5031546;28;20078;-85
2021/09/12 00:54:13;;;;;;;33.65;16.88;;;16.10;99.90;;;;;;5031153;28;20112;-84
2021/09/12 00:56:41;;;;;;;36.22;16.98;;;16.10;99.90;;;;;;5032241;28;20029;-84
2021/09/12 00:59:10;;;;;;;53.05;19.70;;;16.10;99.90;;;;;;5031225;28;20545;-85
2021/09/12 01:01:37;;;;;;;38.42;17.40;;;16.10;99.90;;;;;;5031243;28;20033;-85
2021/09/12 01:04:02;;;;;;;35.50;16.75;;;16.30;99.90;;;;;;5032231;28;20049;-84
2021/09/12 01:06:30;;;;;;;37.15;16.55;;;16.20;99.90;;;;;;5030869;28;20033;-85
2021/09/12 01:08:56;;;;;;;37.03;16.83;;;16.10;99.90;;;;;;5031295;28;20032;-86
2021/09/12 01:11:21;;;;;;;40.20;19.05;;;16.10;99.90;;;;;;5032025;28;20417;-85
2021/09/12 01:13:47;;;;;;;31.23;16.60;;;16.10;99.90;;;;;;5032127;28;20026;-85
2021/09/12 01:16:18;;;;;;;33.00;18.17;;;16.00;99.90;;;;;;5031795;28;20557;-85
2021/09/12 01:18:44;;;;;;;34.97;19.23;;;16.10;99.90;;;;;;5030752;28;20029;-85
2021/09/12 01:21:14;;;;;;;40.60;19.08;;;16.00;99.90;;;;;;5032205;28;20053;-85
2021/09/12 01:23:40;;;;;;;30.77;17.83;;;16.00;99.90;;;;;;5031943;28;20052;-85
2021/09/12 01:26:07;;;;;;;49.10;19.95;;;16.00;99.90;;;;;;5030752;28;20470;-85
2021/09/12 01:28:33;;;;;;;44.40;17.92;;;16.00;99.90;;;;;;5030571;28;20053;-85
2021/09/12 01:31:00;;;;;;;40.05;18.20;;;15.90;99.90;;;;;;5030771;28;20025;-85
2021/09/12 01:33:26;;;;;;;39.58;17.65;;;15.80;99.90;;;;;;5031875;28;20045;-85
2021/09/12 01:35:52;;;;;;;43.72;19.80;;;15.80;99.90;;;;;;5031755;28;20108;-85
2021/09/12 01:38:18;;;;;;;33.28;17.65;;;15.80;99.90;;;;;;5031692;28;20060;-84
2021/09/12 01:40:43;;;;;;;33.15;19.65;;;15.70;99.90;;;;;;5031951;28;20028;-85
2021/09/12 01:43:09;;;;;;;32.40;18.70;;;15.70;99.90;;;;;;5031930;28;20105;-86
2021/09/12 01:45:34;;;;;;;43.85;20.95;;;15.70;99.90;;;;;;5031443;28;20508;-84
2021/09/12 01:48:00;;;;;;;44.55;19.85;;;15.70;99.90;;;;;;5030264;28;20506;-85
2021/09/12 01:50:28;;;;;;;42.15;21.85;;;15.60;99.90;;;;;;5030527;28;20017;-84
2021/09/12 01:52:54;;;;;;;53.67;22.48;;;15.80;99.90;;;;;;5030547;28;20026;-84
2021/09/12 01:55:20;;;;;;;38.60;20.27;;;15.70;99.90;;;;;;5031420;28;20060;-85
2021/09/12 01:57:46;;;;;;;44.47;23.88;;;15.70;99.90;;;;;;5030311;28;20055;-85
2021/09/12 02:00:12;;;;;;;39.08;20.83;;;15.60;99.90;;;;;;5030480;28;20187;-85
2021/09/12 02:02:38;;;;;;;55.70;22.92;;;15.60;99.90;;;;;;5031186;28;20166;-84
2021/09/12 02:05:04;;;;;;;46.53;22.20;;;15.70;99.90;;;;;;5030000;28;20123;-85
2021/09/12 02:07:30;;;;;;;39.92;21.60;;;15.60;99.90;;;;;;5033544;28;20053;-85
2021/09/12 02:09:56;;;;;;;47.60;23.02;;;15.40;99.90;;;;;;5034256;28;20025;-85
2021/09/12 02:12:21;;;;;;;46.03;24.08;;;15.50;99.90;;;;;;5035737;28;20028;-85
2021/09/12 02:14:47;;;;;;;43.63;23.15;;;15.60;99.90;;;;;;5035413;28;20033;-85
2021/09/12 02:17:12;;;;;;;51.58;25.98;;;15.40;99.90;;;;;;5035447;28;20065;-83
2021/09/12 02:19:38;;;;;;;56.85;26.80;;;15.30;99.90;;;;;;5035265;28;20044;-85
2021/09/12 02:22:04;;;;;;;55.72;30.27;;;15.40;99.90;;;;;;5035312;28;20039;-85
2021/09/12 02:24:29;;;;;;;59.40;30.58;;;15.50;99.90;;;;;;5033916;28;20527;-84
2021/09/12 02:26:55;;;;;;;61.28;32.67;;;15.60;99.90;;;;;;5035369;28;20034;-85
2021/09/12 02:29:20;;;;;;;62.75;30.20;;;15.60;99.90;;;;;;5033856;28;20508;-85
2021/09/12 02:31:46;;;;;;;63.92;33.38;;;15.50;99.90;;;;;;5017639;28;20469;-85
2021/09/12 02:34:11;;;;;;;58.88;31.45;;;15.60;99.90;;;;;;5035071;28;20159;-85
2021/09/12 02:36:37;;;;;;;62.83;32.30;;;15.60;99.90;;;;;;5035157;28;20172;-85
2021/09/12 02:39:03;;;;;;;68.15;32.13;;;15.60;99.90;;;;;;5035040;28;20101;-85
2021/09/12 02:41:29;;;;;;;55.05;29.58;;;15.60;99.90;;;;;;5035167;28;20033;-86
2021/09/12 02:43:54;;;;;;;50.00;28.70;;;15.70;99.90;;;;;;5034889;28;20717;-85
2021/09/12 02:46:20;;;;;;;51.30;28.15;;;15.70;99.90;;;;;;5033912;28;20029;-85
2021/09/12 02:48:45;;;;;;;53.63;26.27;;;15.70;99.90;;;;;;5033938;28;20036;-85
2021/09/12 02:51:11;;;;;;;60.97;27.08;;;15.90;99.90;;;;;;5033227;28;20112;-85
2021/09/12 02:53:37;;;;;;;61.13;27.48;;;15.90;99.90;;;;;;5034921;28;20029;-84
2021/09/12 02:56:03;;;;;;;44.40;24.95;;;16.10;99.90;;;;;;5034755;28;20026;-85
2021/09/12 02:58:28;;;;;;;50.25;24.70;;;16.00;99.90;;;;;;5033566;28;20029;-85
2021/09/12 03:00:54;;;;;;;40.45;23.35;;;16.00;99.90;;;;;;5033017;28;20025;-85
2021/09/12 03:03:19;;;;;;;42.40;23.50;;;16.00;99.90;;;;;;5034768;28;20083;-85
2021/09/12 03:05:45;;;;;;;44.22;22.13;;;16.00;99.90;;;;;;5034341;28;20029;-85
2021/09/12 03:08:10;;;;;;;49.95;22.42;;;15.90;99.90;;;;;;5033579;28;20068;-85
2021/09/12 03:10:36;;;;;;;42.17;22.33;;;15.90;99.90;;;;;;5033085;28;20029;-86
2021/09/12 03:13:02;;;;;;;47.80;22.00;;;15.90;99.90;;;;;;5033471;28;20025;-86
2021/09/12 03:15:28;;;;;;;42.28;21.73;;;15.80;99.90;;;;;;5034469;28;20080;-85
2021/09/12 03:17:53;;;;;;;31.02;20.05;;;15.70;99.90;;;;;;5033186;28;20034;-86
2021/09/12 03:20:19;;;;;;;44.20;20.35;;;15.60;99.90;;;;;;5033032;28;20029;-85
2021/09/12 03:22:45;;;;;;;42.35;23.10;;;15.70;99.90;;;;;;5032892;28;20025;-85
2021/09/12 03:25:10;;;;;;;48.65;25.35;;;15.60;99.90;;;;;;5032792;28;20441;-85
2021/09/12 03:27:36;;;;;;;59.05;24.25;;;15.70;99.90;;;;;;5034345;28;20600;-85
2021/09/12 03:30:02;;;;;;;37.70;21.25;;;15.80;99.90;;;;;;5034355;28;20021;-85
2021/09/12 03:32:27;;;;;;;49.58;21.27;;;15.80;99.90;;;;;;5034018;28;20529;-85
2021/09/12 03:34:53;;;;;;;40.65;20.27;;;15.80;99.90;;;;;;5032784;28;20119;-86
2021/09/12 03:37:19;;;;;;;35.42;21.27;;;15.80;99.90;;;;;;5034132;28;20030;-85
2021/09/12 03:39:44;;;;;;;46.05;20.30;;;15.90;99.90;;;;;;5034149;28;20501;-85
2021/09/12 03:42:10;;;;;;;40.50;20.00;;;15.90;99.90;;;;;;5033710;28;20037;-86
2021/09/12 03:44:35;;;;;;;36.67;19.67;;;15.80;99.90;;;;;;5033878;28;20517;-85
2021/09/12 03:47:01;;;;;;;33.90;20.08;;;16.00;99.90;;;;;;5032649;28;20389;-84
2021/09/12 03:49:26;;;;;;;37.95;19.02;;;15.90;99.90;;;;;;5032660;28;20017;-85
2021/09/12 03:51:52;;;;;;;32.88;19.92;;;15.90;99.90;;;;;;5033716;28;20397;-85
2021/09/12 03:54:18;;;;;;;35.72;20.23;;;16.00;99.90;;;;;;5033545;28;20037;-84
2021/09/12 03:56:43;;;;;;;38.63;18.20;;;16.00;99.90;;;;;;5033758;28;20024;-84
2021/09/12 03:59:09;;;;;;;47.22;21.02;;;16.00;99.90;;;;;;5033737;28;20485;-86
2021/09/12 04:01:34;;;;;;;33.92;19.83;;;16.00;99.90;;;;;;5033413;28;20025;-85
2021/09/12 04:04:00;;;;;;;39.67;18.75;;;16.10;99.90;;;;;;5032187;28;20119;-84
2021/09/12 04:06:25;;;;;;;44.72;20.30;;;16.10;99.90;;;;;;5032295;28;20079;-84
2021/09/12 04:08:53;;;;;;;41.75;19.65;;;16.00;99.90;;;;;;5032316;28;20067;-85
2021/09/12 04:11:19;;;;;;;35.22;18.77;;;16.10;99.90;;;;;;5032190;28;20026;-86
2021/09/12 04:13:44;;;;;;;32.58;19.10;;;16.20;99.90;;;;;;5032841;28;20041;-86
2021/09/12 04:16:10;;;;;;;30.58;18.40;;;16.20;99.90;;;;;;5033471;28;20067;-85
2021/09/12 04:18:36;;;;;;;31.50;17.60;;;16.30;99.90;;;;;;5032212;28;20075;-85
2021/09/12 04:21:02;;;;;;;25.20;15.50;;;16.20;99.90;;;;;;5032186;28;20056;-86
2021/09/12 04:23:27;;;;;;;39.28;17.00;;;16.20;99.90;;;;;;5031691;28;20559;-85
2021/09/12 04:25:53;;;;;;;22.05;15.05;;;16.20;99.90;;;;;;5032954;28;20100;-86
2021/09/12 04:28:18;;;;;;;37.17;16.98;;;16.30;99.90;;;;;;5015504;28;20036;-85
2021/09/12 04:30:44;;;;;;;34.60;16.08;;;16.20;99.90;;;;;;5032739;28;20030;-86
2021/09/12 04:33:09;;;;;;;31.30;15.65;;;16.30;99.90;;;;;;5031961;28;20028;-85
2021/09/12 04:35:35;;;;;;;47.33;18.15;;;16.30;99.90;;;;;;5032774;28;20393;-86
2021/09/12 04:38:02;;;;;;;32.63;17.00;;;16.40;99.90;;;;;;5033060;28;20030;-86
2021/09/12 04:40:27;;;;;;;33.28;16.35;;;16.30;99.90;;;;;;5032842;28;20031;-86
2021/09/12 04:42:53;;;;;;;39.65;17.98;;;16.40;99.90;;;;;;5031506;28;20025;-85
2021/09/12 04:45:18;;;;;;;39.85;19.60;;;16.30;99.90;;;;;;5032533;28;20028;-85
2021/09/12 04:47:45;;;;;;;43.47;18.67;;;16.30;99.90;;;;;;5032851;28;20124;-85
2021/09/12 04:50:11;;;;;;;39.17;20.23;;;16.40;99.90;;;;;;5032790;28;20060;-86
2021/09/12 04:52:36;;;;;;;40.47;22.48;;;16.20;99.90;;;;;;5031481;28;20028;-84
2021/09/12 04:55:03;;;;;;;39.85;19.77;;;16.30;99.90;;;;;;5030768;28;20030;-83
2021/09/12 04:57:28;;;;;;;37.90;20.67;;;16.30;99.90;;;;;;5031375;28;20036;-84
2021/09/12 04:59:54;;;;;;;36.03;20.60;;;16.30;99.90;;;;;;5032561;28;20030;-84
2021/09/12 05:02:19;;;;;;;36.75;18.33;;;16.20;99.90;;;;;;5032621;28;20025;-85
2021/09/12 05:04:45;;;;;;;36.95;18.83;;;16.20;99.90;;;;;;5030722;28;20041;-84
2021/09/12 05:07:10;;;;;;;33.38;19.67;;;16.20;99.90;;;;;;5032524;28;20022;-86
2021/09/12 05:09:36;;;;;;;37.33;18.63;;;16.00;99.90;;;;;;5014336;28;20079;-83
2021/09/12 05:12:02;;;;;;;35.70;17.83;;;16.10;99.90;;;;;;5031155;28;20057;-85
2021/09/12 05:14:27;;;;;;;36.30;17.20;;;16.10;99.90;;;;;;5032303;28;20040;-86
2021/09/12 05:16:53;;;;;;;28.63;16.83;;;16.10;99.90;;;;;;5031055;28;20033;-86
2021/09/12 05:19:18;;;;;;;23.05;15.43;;;16.10;99.90;;;;;;5030877;28;20026;-86
2021/09/12 05:21:44;;;;;;;24.75;14.45;;;16.00;99.90;;;;;;5032285;28;20029;-86
2021/09/12 05:24:10;;;;;;;37.28;14.82;;;16.00;99.90;;;;;;5031968;28;20026;-85
2021/09/12 05:26:35;;;;;;;30.40;14.43;;;16.10;99.90;;;;;;5032207;28;20041;-85
2021/09/12 05:29:01;;;;;;;35.28;15.77;;;16.10;99.90;;;;;;5031887;28;20440;-85
2021/09/12 05:31:26;;;;;;;36.80;16.33;;;16.00;99.90;;;;;;5032128;28;20512;-85
2021/09/12 05:33:52;;;;;;;27.52;16.25;;;16.10;99.90;;;;;;5031811;28;20031;-85
2021/09/12 05:36:17;;;;;;;26.50;15.23;;;16.20;99.90;;;;;;5030739;28;20034;-84
2021/09/12 05:38:43;;;;;;;32.03;13.55;;;16.10;99.90;;;;;;5031955;28;20026;-86
2021/09/12 05:41:08;;;;;;;36.17;14.15;;;16.30;99.90;;;;;;5031112;28;20509;-86
2021/09/12 05:43:34;;;;;;;30.13;12.02;;;16.20;99.90;;;;;;5014303;28;20025;-85
2021/09/12 05:46:00;;;;;;;26.52;13.02;;;16.30;99.90;;;;;;5030436;28;20026;-85
2021/09/12 05:48:25;;;;;;;38.58;14.77;;;16.30;99.90;;;;;;5014263;28;20025;-85
2021/09/12 05:50:51;;;;;;;30.52;13.05;;;16.30;99.90;;;;;;5031529;28;20086;-86
2021/09/12 05:53:18;;;;;;;21.33;12.15;;;16.30;99.90;;;;;;5014133;28;20030;-86
2021/09/12 05:55:44;;;;;;;28.75;13.57;;;16.30;99.90;;;;;;5031572;28;20497;-85
2021/09/12 05:58:09;;;;;;;17.10;11.57;;;16.40;99.90;;;;;;5031899;28;20030;-85
2021/09/12 06:00:35;;;;;;;38.90;12.15;;;16.40;99.90;;;;;;5030277;28;20026;-86
2021/09/12 06:03:00;;;;;;;29.33;11.38;;;16.50;99.90;;;;;;5030862;28;20055;-86
2021/09/12 06:05:26;;;;;;;22.58;9.43;;;16.50;99.90;;;;;;5031297;28;20114;-87
2021/09/12 06:07:52;;;;;;;29.77;9.38;;;16.70;99.90;;;;;;5031516;28;20033;-85
2021/09/12 06:10:17;;;;;;;25.35;9.77;;;16.70;99.90;;;;;;5031223;28;20025;-85
2021/09/12 06:12:43;;;;;;;28.65;10.50;;;16.70;99.90;;;;;;5031613;28;20508;-86
2021/09/12 06:15:09;;;;;;;18.70;7.80;;;16.80;99.90;;;;;;5013549;28;20026;-86
2021/09/12 06:17:34;;;;;;;20.27;8.95;;;16.80;99.90;;;;;;5030499;28;20505;-85
2021/09/12 06:20:00;;;;;;;24.70;8.63;;;16.90;99.90;;;;;;5030375;28;20053;-86
2021/09/12 06:22:25;;;;;;;17.20;7.38;;;17.00;99.90;;;;;;5031050;28;20052;-87
2021/09/12 06:24:51;;;;;;;17.27;7.68;;;17.10;99.90;;;;;;5029898;28;20029;-86
2021/09/12 06:27:16;;;;;;;18.17;7.57;;;17.10;99.90;;;;;;5030121;28;20021;-85
2021/09/12 06:29:42;;;;;;;15.85;7.28;;;17.20;99.90;;;;;;5031431;28;20501;-86
2021/09/12 06:32:08;;;;;;;12.68;7.18;;;17.30;99.90;;;;;;5030042;28;20083;-85
2021/09/12 06:34:34;;;;;;;18.20;7.25;;;17.20;99.90;;;;;;5031150;28;20030;-86
2021/09/12 06:36:59;;;;;;;25.27;7.70;;;17.50;99.90;;;;;;5031183;28;20029;-86
2021/09/12 06:39:25;;;;;;;25.85;8.02;;;17.40;99.90;;;;;;5031486;28;20030;-84
2021/09/12 06:41:51;;;;;;;15.48;6.65;;;17.50;99.90;;;;;;5031070;28;20509;-87
2021/09/12 06:44:17;;;;;;;13.63;5.38;;;17.60;99.90;;;;;;5029764;28;20061;-86
2021/09/12 06:46:42;;;;;;;22.63;6.55;;;17.70;99.90;;;;;;5031212;28;20013;-85
2021/09/12 06:49:08;;;;;;;17.77;6.35;;;17.80;99.90;;;;;;5029958;28;20493;-86
2021/09/12 06:51:34;;;;;;;10.60;5.80;;;17.90;99.90;;;;;;5029698;28;20022;-86
2021/09/12 06:53:59;;;;;;;20.13;4.72;;;18.00;99.90;;;;;;5016989;28;20124;-85
2021/09/12 06:56:25;;;;;;;10.88;4.93;;;18.00;99.90;;;;;;5034816;28;20029;-86
2021/09/12 06:58:50;;;;;;;11.15;4.90;;;18.20;99.90;;;;;;5034842;28;20529;-86
2021/09/12 07:01:16;;;;;;;13.90;4.95;;;18.30;99.90;;;;;;5033487;28;20121;-86
2021/09/12 07:03:42;;;;;;;11.40;4.55;;;18.30;99.90;;;;;;5034378;28;20029;-85
2021/09/12 07:06:08;;;;;;;17.80;4.55;;;18.30;99.90;;;;;;5033281;28;20036;-86
2021/09/12 07:08:34;;;;;;;14.50;4.38;;;18.40;99.90;;;;;;5034647;28;20029;-86
2021/09/12 07:10:59;;;;;;;11.95;3.67;;;18.40;99.90;;;;;;5034496;28;20029;-86
2021/09/12 07:13:25;;;;;;;20.65;4.53;;;18.40;99.90;;;;;;5033046;28;20025;-86
2021/09/12 07:15:50;;;;;;;14.77;5.05;;;18.50;99.90;;;;;;5034163;28;20064;-86
2021/09/12 07:18:16;;;;;;;18.55;5.10;;;18.50;99.90;;;;;;5033314;28;20371;-85
2021/09/12 07:20:42;;;;;;;17.27;5.25;;;18.50;99.90;;;;;;5016457;28;20025;-85
2021/09/12 07:23:08;;;;;;;13.77;5.05;;;18.40;99.90;;;;;;5032927;28;20394;-85
2021/09/12 07:25:33;;;;;;;16.27;4.07;;;18.40;99.90;;;;;;5033437;28;20029;-83
2021/09/12 07:27:59;;;;;;;10.35;3.78;;;18.20;99.90;;;;;;5033072;28;20030;-84
2021/09/12 07:30:25;;;;;;;12.52;4.55;;;18.20;99.90;;;;;;5033180;28;20021;-83
2021/09/12 07:32:51;;;;;;;11.13;4.68;;;18.10;99.90;;;;;;5032710;28;20029;-86
2021/09/12 07:35:16;;;;;;;12.25;4.20;;;18.10;99.90;;;;;;5033621;28;20033;-85
2021/09/12 07:37:42;;;;;;;7.00;4.70;;;18.10;99.90;;;;;;5034191;28;20519;-90
2021/09/12 07:40:08;;;;;;;12.93;3.85;;;18.00;99.90;;;;;;5016449;28;20058;-86
2021/09/12 07:42:34;;;;;;;8.50;4.25;;;18.00;99.90;;;;;;5033958;28;20092;-86
2021/09/12 07:45:00;;;;;;;16.05;5.35;;;18.10;99.90;;;;;;5033619;28;20037;-85
2021/09/12 07:47:25;;;;;;;8.50;3.83;;;18.20;99.90;;;;;;5033826;28;20014;-86
2021/09/12 07:49:51;;;;;;;13.07;5.32;;;18.30;99.90;;;;;;5033887;28;20060;-87
2021/09/12 07:52:16;;;;;;;12.13;4.55;;;18.50;99.90;;;;;;5032633;28;20112;-84
2021/09/12 07:54:42;;;;;;;12.35;4.57;;;18.40;99.90;;;;;;5025694;28;20060;-88
2021/09/12 07:57:07;;;;;;;13.30;3.78;;;18.40;99.90;;;;;;5014750;28;20409;-90
2021/09/12 07:59:33;;;;;;;14.57;4.85;;;18.30;99.90;;;;;;5029902;28;20029;-87
2021/09/12 08:01:58;;;;;;;14.15;4.15;;;18.20;99.90;;;;;;5029252;28;20026;-87
2021/09/12 08:04:24;;;;;;;13.20;3.70;;;18.10;99.90;;;;;;5039839;28;20025;-87
2021/09/12 08:06:50;;;;;;;8.52;3.45;;;18.10;99.90;;;;;;5012567;28;20034;-87
2021/09/12 08:09:15;;;;;;;13.45;5.13;;;18.00;99.90;;;;;;5012749;28;20417;-88
2021/09/12 08:11:41;;;;;;;12.10;5.07;;;18.00;99.90;;;;;;5012433;28;20022;-87
2021/09/12 08:14:07;;;;;;;25.50;5.32;;;18.00;99.90;;;;;;5019855;28;20051;-87
2021/09/12 08:16:33;;;;;;;14.00;4.78;;;18.10;99.90;;;;;;5032154;28;20464;-85
2021/09/12 08:18:58;;;;;;;10.18;4.28;;;18.20;99.90;;;;;;5033032;28;20087;-86
2021/09/12 08:21:24;;;;;;;11.57;4.50;;;18.20;99.90;;;;;;5033322;28;20483;-89
2021/09/12 08:23:50;;;;;;;8.52;4.70;;;18.40;99.90;;;;;;5031285;28;20065;-85
2021/09/12 08:26:16;;;;;;;10.90;4.55;;;18.60;99.90;;;;;;5032088;28;20021;-86
2021/09/12 08:28:41;;;;;;;16.38;4.95;;;18.60;99.90;;;;;;5032099;28;20075;-88
2021/09/12 08:31:07;;;;;;;11.43;4.55;;;18.50;99.90;;;;;;5032085;28;20036;-88
2021/09/12 08:33:33;;;;;;;12.65;5.22;;;18.60;99.90;;;;;;5031839;28;20104;-87
2021/09/12 08:35:58;;;;;;;9.05;4.10;;;18.90;99.90;;;;;;5031391;28;20414;-86
2021/09/12 08:38:24;;;;;;;12.82;3.70;;;19.20;99.90;;;;;;5033294;28;20071;-88
2021/09/12 08:40:55;;;;;;;7.82;3.55;;;19.40;99.90;;;;;;5015427;28;20025;-88
2021/09/12 08:43:21;;;;;;;9.02;3.47;;;19.50;99.90;;;;;;5033133;28;20056;-87
2021/09/12 08:45:48;;;;;;;14.90;3.80;;;19.60;99.90;;;;;;5032654;28;20053;-88
2021/09/12 08:48:14;;;;;;;9.18;3.28;;;19.60;99.90;;;;;;5032981;28;20100;-85
2021/09/12 08:50:39;;;;;;;11.20;2.95;;;19.60;99.90;;;;;;5033079;28;20057;-88
2021/09/12 08:53:05;;;;;;;13.05;2.97;;;19.70;99.90;;;;;;5033362;28;20034;-87
2021/09/12 08:55:31;;;;;;;7.15;2.40;;;19.80;99.90;;;;;;5032272;28;20025;-79
2021/09/12 08:57:58;;;;;;;7.18;2.05;;;20.10;99.90;;;;;;5032630;28;20080;-81
2021/09/12 09:00:27;;;;;;;6.40;2.40;;;20.10;99.90;;;;;;5032619;28;20040;-82
2021/09/12 09:03:00;;;;;;;5.50;1.77;;;20.00;99.90;;;;;;5032295;28;20394;-81
2021/09/12 09:05:30;;;;;;;5.20;2.30;;;20.30;99.90;;;;;;5031849;28;20033;-83
2021/09/12 09:08:04;;;;;;;8.48;2.58;;;20.40;99.90;;;;;;5032464;28;20021;-85
2021/09/12 09:10:40;;;;;;;8.82;1.90;;;20.40;99.90;;;;;;5032349;28;20049;-85
2021/09/12 09:13:29;;;;;;;6.72;1.67;;;20.20;99.90;;;;;;5032477;28;20052;-81
2021/09/12 09:15:56;;;;;;;4.40;1.38;;;20.00;99.90;;;;;;5010978;28;20030;-85
2021/09/12 09:18:32;;;;;;;9.70;2.17;;;19.50;99.90;;;;;;5012432;28;20022;-82
2021/09/12 09:20:59;;;;;;;5.60;1.38;;;19.40;99.90;;;;;;5011215;28;20029;-81
2021/09/12 09:23:25;;;;;;;6.70;1.85;;;19.00;99.90;;;;;;5012492;28;20022;-82
2021/09/12 09:25:52;;;;;;;8.68;1.65;;;18.90;99.90;;;;;;5028919;28;20044;-80
2021/09/12 09:28:19;;;;;;;15.68;1.92;;;18.70;99.90;;;;;;5014386;28;20302;-85
2021/09/12 09:30:53;;;;;;;12.45;1.88;;;18.80;99.90;;;;;;5014469;28;20456;-81
2021/09/12 09:33:26;;;;;;;11.18;1.77;;;18.80;99.90;;;;;;5030811;28;20037;-82
2021/09/12 09:36:06;;;;;;;5.70;1.52;;;19.30;99.90;;;;;;5031318;28;20021;-84
2021/09/12 09:38:37;;;;;;;5.47;1.52;;;19.90;99.90;;;;;;5032207;28;20017;-81
2021/09/12 09:41:14;;;;;;;6.85;1.67;;;20.10;99.90;;;;;;5031971;28;20017;-84
2021/09/12 09:43:45;;;;;;;10.43;1.70;;;20.60;99.90;;;;;;5030398;28;20025;-85
2021/09/12 09:46:32;;;;;;;6.10;1.60;;;20.20;99.90;;;;;;5031417;28;20033;-83
2021/09/12 09:49:00;;;;;;;5.25;1.15;;;19.80;99.90;;;;;;5030613;28;20029;-82
2021/09/12 09:51:27;;;;;;;5.05;1.30;;;19.60;99.90;;;;;;5014620;28;20505;-81
2021/09/12 09:53:52;;;;;;;9.65;1.73;;;19.60;99.90;;;;;;5030289;28;20033;-83
2021/09/12 09:56:19;;;;;;;3.95;1.08;;;19.70;99.90;;;;;;5030187;28;20083;-82
2021/09/12 09:58:46;;;;;;;7.28;1.25;;;20.00;99.90;;;;;;5031644;28;20104;-81
2021/09/12 10:01:11;;;;;;;9.57;1.67;;;20.10;99.90;;;;;;5030319;28;20032;-83
2021/09/12 10:03:38;;;;;;;9.15;1.33;;;20.20;99.90;;;;;;5030264;28;20029;-82
2021/09/12 10:06:03;;;;;;;4.65;0.98;;;20.50;99.90;;;;;;5029950;28;20029;-80
2021/09/12 10:08:30;;;;;;;3.88;1.00;;;20.50;99.90;;;;;;5031623;28;20017;-82
2021/09/12 10:10:56;;;;;;;8.07;1.60;;;20.20;99.90;;;;;;5030896;28;20122;-82
2021/09/12 10:13:25;;;;;;;7.38;1.48;;;20.10;99.90;;;;;;5031667;28;20018;-82
2021/09/12 10:15:57;;;;;;;7.70;1.50;;;20.00;99.90;;;;;;5031052;28;20018;-81
2021/09/12 10:18:26;;;;;;;6.72;1.67;;;20.20;99.90;;;;;;5017994;28;20482;-84
2021/09/12 10:20:51;;;;;;;9.10;1.55;;;20.20;99.90;;;;;;5026871;28;20509;-82
2021/09/12 10:23:17;;;;;;;5.80;1.65;;;19.80;99.90;;;;;;5022337;28;20018;-83
2021/09/12 10:25:48;;;;;;;6.82;1.35;;;20.20;99.90;;;;;;5040551;28;20021;-85
2021/09/12 10:28:30;;;;;;;7.32;1.38;;;20.70;99.90;;;;;;5026904;28;20026;-84
2021/09/12 10:30:57;;;;;;;4.82;1.02;;;21.00;99.90;;;;;;5036877;28;20025;-85
2021/09/12 10:33:26;;;;;;;7.95;1.33;;;21.30;99.90;;;;;;5030613;28;20025;-85
2021/09/12 10:36:03;;;;;;;5.53;1.30;;;21.70;99.90;;;;;;5030846;28;20025;-85
2021/09/12 10:38:37;;;;;;;4.55;1.50;;;21.90;99.90;;;;;;5031415;28;20029;-82
2021/09/12 10:41:03;;;;;;;4.43;0.68;;;21.90;99.90;;;;;;5030752;28;20029;-83
2021/09/12 10:43:30;;;;;;;7.70;1.33;;;21.80;99.90;;;;;;5045312;28;20033;-85
2021/09/12 10:46:01;;;;;;;7.47;1.60;;;21.90;99.90;;;;;;5030197;28;20450;-85
2021/09/12 10:48:34;;;;;;;13.77;1.55;;;21.70;99.90;;;;;;5031345;28;20122;-85
2021/09/12 10:51:02;;;;;;;13.25;2.22;;;22.00;99.90;;;;;;5007510;28;20030;-92
2021/09/12 10:53:48;;;;;;;8.77;1.38;;;21.90;99.90;;;;;;5022665;28;20022;-82
2021/09/12 10:56:17;;;;;;;3.90;1.05;;;21.80;99.90;;;;;;5021334;28;20030;-81
2021/09/12 10:58:50;;;;;;;6.47;1.02;;;22.20;99.90;;;;;;5018134;28;20141;-82
2021/09/12 11:01:28;;;;;;;2.45;0.95;;;22.20;99.90;;;;;;5026007;28;20022;-80
2021/09/12 11:03:58;;;;;;;3.70;0.90;;;22.40;99.90;;;;;;5013484;28;20119;-82
2021/09/12 11:06:24;;;;;;;8.73;1.42;;;22.20;99.90;;;;;;5015043;28;20022;-82
2021/09/12 11:08:50;;;;;;;6.68;0.98;;;21.90;99.90;;;;;;5013530;28;20022;-82
2021/09/12 11:11:15;;;;;;;6.47;1.33;;;21.70;99.90;;;;;;5018954;28;20080;-81
2021/09/12 11:13:41;;;;;;;8.35;1.50;;;21.90;99.90;;;;;;5033222;28;20025;-81
2021/09/12 11:16:11;;;;;;;8.68;1.75;;;21.50;99.90;;;;;;5034344;28;20101;-83
2021/09/12 11:18:47;;;;;;;5.50;1.13;;;21.60;99.90;;;;;;5033140;28;20026;-84
2021/09/12 11:21:40;;;;;;;8.52;1.55;;;21.70;99.90;;;;;;5032575;28;20017;-83
2021/09/12 11:24:17;;;;;;;6.53;1.48;;;21.70;99.90;;;;;;5034155;28;20032;-83
2021/09/12 11:26:44;;;;;;;7.75;1.83;;;21.90;99.90;;;;;;5033115;28;20386;-82
2021/09/12 11:29:11;;;;;;;9.20;1.25;;;22.20;99.90;;;;;;5034214;28;20022;-84
2021/09/12 11:31:38;;;;;;;6.25;1.63;;;22.10;99.90;;;;;;5032884;28;20229;-84
2021/09/12 11:34:04;;;;;;;9.05;1.35;;;22.30;99.90;;;;;;5033987;28;20029;-84
2021/09/12 11:36:45;;;;;;;12.98;1.60;;;21.90;99.90;;;;;;5033288;28;20030;-85
2021/09/12 11:39:11;;;;;;;4.43;1.58;;;21.40;99.90;;;;;;5031649;28;20033;-83
2021/09/12 11:41:37;;;;;;;9.38;1.52;;;21.00;99.90;;;;;;5033846;28;20022;-84
2021/09/12 11:44:03;;;;;;;8.88;1.50;;;21.00;99.90;;;;;;5032659;28;20096;-85
2021/09/12 11:46:32;;;;;;;9.32;1.70;;;21.20;99.90;;;;;;5033812;28;20456;-83
2021/09/12 11:49:03;;;;;;;8.65;1.60;;;21.40;99.90;;;;;;5033937;28;20573;-82
2021/09/12 11:51:38;;;;;;;4.82;0.90;;;21.30;99.90;;;;;;5033914;28;20105;-84
2021/09/12 11:54:06;;;;;;;9.02;1.40;;;20.80;99.90;;;;;;5033404;28;20029;-83
2021/09/12 11:56:32;;;;;;;6.43;1.17;;;20.30;99.90;;;;;;5008504;28;20494;-84
2021/09/12 11:58:59;;;;;;;10.15;1.85;;;19.80;99.90;;;;;;5013514;28;20030;-85
2021/09/12 12:01:24;;;;;;;9.95;1.40;;;19.50;99.90;;;;;;5043299;28;20112;-85
2021/09/12 12:03:50;;;;;;;4.68;1.00;;;19.60;99.90;;;;;;5033925;28;20128;-82
2021/09/12 12:06:16;;;;;;;12.60;2.22;;;19.50;99.90;;;;;;5029313;28;20038;-83
2021/09/12 12:09:02;;;;;;;8.13;2.03;;;19.40;99.90;;;;;;5027985;28;20029;-82
2021/09/12 12:11:28;;;;;;;5.93;1.40;;;19.20;99.90;;;;;;5028980;28;20629;-83
2021/09/12 12:13:53;;;;;;;10.25;1.60;;;19.50;99.90;;;;;;5017564;28;20075;-82
2021/09/12 12:16:19;;;;;;;11.18;1.63;;;19.60;99.90;;;;;;5033220;28;20067;-84
2021/09/12 12:18:44;;;;;;;8.40;1.95;;;20.60;99.90;;;;;;5023571;28;20022;-83
2021/09/12 12:21:12;;;;;;;8.38;1.27;;;21.50;99.90;;;;;;5020662;28;20025;-84
2021/09/12 12:23:38;;;;;;;10.32;1.38;;;22.60;99.90;;;;;;5028645;28;20067;-83
2021/09/12 12:26:16;;;;;;;4.05;1.13;;;22.30;99.90;;;;;;5013103;28;20414;-83
2021/09/12 12:28:42;;;;;;;7.35;1.25;;;21.70;99.90;;;;;;5029001;28;20034;-82
2021/09/12 12:31:09;;;;;;;6.38;1.02;;;20.80;99.90;;;;;;5038733;28;20441;-83
2021/09/12 12:33:36;;;;;;;8.50;1.60;;;21.00;99.90;;;;;;5042107;28;20056;-82